Silla, Spain
Current Conditions -  °F | °C
As of 5:00 PM on Friday 24 Oct 2014 (Local Time) from LEVC Reporting Station
Clear Clear  
Wind Chill: 81°   Ceiling: Unl
Heat Index: 81°   Visibility: 6mi
Dew Point: 45°   Wind: 10mph
Humidity: 28%   Direction: 140°SE
Pressure: 29.97"   Gusts: NA
Location:  39.37°N, 0.42°W
Report Text: LEVC 241500Z 14009KT 100V170 CAVOK 27/07 Q1015 NOSIG
Loading
Personal Weather Stations






























Interactive Weather Map
Tropical Storm Tracking
New forecast layout! Learn more

10-Day Weather Forecast

Advertisements
Track Severe Weather on mobile